Time;durP1;ratioP1;P1;durP2;ratioP2;P2;SDS_P1;SDS_P2;PMS_P1;PMS_P2;Temp;Humidity;BMP_temperature;BMP_pressure;BME280_temperature;BME280_humidity;BME280_pressure;Samples;Min_cycle;Max_cycle;Signal;HPM_P1;HPM_P2
2022/08/26 00:01:54;;;;;;;4.05;3.75;;;25.60;61.50;;;;;;5048057;28;20386;-64
2022/08/26 00:04:23;;;;;;;3.60;3.30;;;25.50;61.50;;;;;;5047330;28;20557;-63
2022/08/26 00:06:53;;;;;;;6.53;3.83;;;25.60;61.50;;;;;;5043613;28;20052;-64
2022/08/26 00:09:21;;;;;;;3.90;3.60;;;25.50;61.50;;;;;;5048045;28;20106;-63
2022/08/26 00:11:51;;;;;;;4.57;4.18;;;25.50;61.50;;;;;;5046689;28;20053;-63
2022/08/26 00:14:18;;;;;;;4.03;3.72;;;25.50;61.50;;;;;;5048098;28;20456;-64
2022/08/26 00:16:45;;;;;;;4.15;3.85;;;25.50;61.50;;;;;;5048552;28;20442;-63
2022/08/26 00:19:16;;;;;;;4.05;3.65;;;25.50;61.50;;;;;;5047681;28;20456;-64
2022/08/26 00:21:45;;;;;;;3.75;3.45;;;25.50;61.50;;;;;;5048201;28;20049;-63
2022/08/26 00:24:16;;;;;;;4.32;3.92;;;25.50;61.50;;;;;;5047635;28;20045;-64
2022/08/26 00:26:44;;;;;;;3.50;3.20;;;25.50;61.50;;;;;;5048128;28;20053;-64
2022/08/26 00:29:12;;;;;;;3.97;3.67;;;25.50;61.50;;;;;;5048168;28;20382;-65
2022/08/26 00:31:40;;;;;;;4.05;3.75;;;25.50;61.50;;;;;;5048005;28;20040;-63
2022/08/26 00:34:09;;;;;;;3.80;3.50;;;25.50;61.50;;;;;;5048320;28;20076;-63
2022/08/26 00:36:38;;;;;;;4.25;3.85;;;25.50;62.10;;;;;;5047596;28;20049;-63
2022/08/26 00:39:07;;;;;;;4.03;3.45;;;25.50;61.50;;;;;;5042354;28;20049;-64
2022/08/26 00:41:37;;;;;;;4.05;3.70;;;25.50;61.50;;;;;;5047509;28;20056;-63
2022/08/26 00:44:06;;;;;;;3.88;3.58;;;25.50;61.50;;;;;;5047342;28;20132;-63
2022/08/26 00:46:41;;;;;;;3.95;3.55;;;25.50;61.50;;;;;;5046818;28;20461;-64
2022/08/26 00:49:20;;;;;;;3.83;3.53;;;25.40;61.50;;;;;;5047347;28;20506;-63
2022/08/26 00:51:54;;;;;;;3.58;3.28;;;25.50;61.50;;;;;;5048242;28;20053;-64
2022/08/26 00:54:24;;;;;;;3.90;3.55;;;25.50;61.60;;;;;;5047530;28;20456;-63
2022/08/26 00:56:59;;;;;;;4.10;3.75;;;25.50;61.60;;;;;;5046891;28;20049;-63
2022/08/26 00:59:29;;;;;;;4.15;3.75;;;25.40;61.50;;;;;;5046658;28;20049;-64
2022/08/26 01:01:59;;;;;;;3.85;3.55;;;25.40;61.50;;;;;;5046923;28;20418;-63
2022/08/26 01:04:32;;;;;;;3.83;3.50;;;25.40;61.50;;;;;;5048012;28;20214;-64
2022/08/26 01:06:59;;;;;;;3.50;3.20;;;25.40;61.50;;;;;;5047594;28;20510;-64
2022/08/26 01:09:27;;;;;;;4.00;3.70;;;25.40;61.50;;;;;;5047597;28;20051;-64
2022/08/26 01:11:57;;;;;;;3.53;3.25;;;25.40;61.50;;;;;;5043299;28;20103;-64
2022/08/26 01:14:31;;;;;;;3.90;3.50;;;25.40;61.60;;;;;;5045625;28;20041;-64
2022/08/26 01:17:01;;;;;;;4.00;3.70;;;25.40;61.60;;;;;;5048179;28;20260;-63
2022/08/26 01:19:43;;;;;;;4.40;4.00;;;25.40;61.60;;;;;;5046257;28;20107;-64
2022/08/26 01:22:18;;;;;;;4.10;3.60;;;25.40;61.60;;;;;;5051486;28;20560;-64
2022/08/26 01:24:47;;;;;;;3.42;3.13;;;25.40;61.60;;;;;;5051109;28;20045;-63
2022/08/26 01:27:18;;;;;;;5.28;3.65;;;25.40;61.60;;;;;;5049963;28;20122;-64
2022/08/26 01:29:48;;;;;;;3.92;3.30;;;25.40;61.60;;;;;;5051279;28;20041;-64
2022/08/26 01:32:18;;;;;;;4.13;3.72;;;25.40;61.60;;;;;;5050666;28;20053;-64
2022/08/26 01:34:47;;;;;;;3.50;3.20;;;25.40;61.50;;;;;;5032505;28;20057;-64
2022/08/26 01:37:20;;;;;;;4.55;3.47;;;25.40;61.60;;;;;;5050923;28;20592;-64
2022/08/26 01:39:52;;;;;;;3.83;3.53;;;25.40;61.60;;;;;;5050981;28;20045;-64
2022/08/26 01:42:23;;;;;;;4.22;3.88;;;25.40;61.50;;;;;;5046356;28;20577;-64
2022/08/26 01:44:52;;;;;;;;;;;25.40;61.50;;;;;;5050670;28;20229;-64
2022/08/26 01:47:22;;;;;;;4.00;3.70;;;25.40;61.50;;;;;;5051179;28;19927;-64
2022/08/26 01:49:53;;;;;;;4.32;3.92;;;25.40;61.50;;;;;;5050302;28;20088;-63
2022/08/26 01:52:24;;;;;;;4.57;4.18;;;25.40;61.50;;;;;;5050863;28;20107;-64
2022/08/26 01:54:56;;;;;;;3.60;3.30;;;25.40;61.50;;;;;;5047915;28;20468;-64
2022/08/26 01:57:24;;;;;;;3.97;3.63;;;25.40;61.60;;;;;;5050678;28;20048;-63
2022/08/26 01:59:56;;;;;;;4.35;3.95;;;25.40;61.60;;;;;;5050941;28;20454;-64
2022/08/26 02:02:24;;;;;;;3.63;3.33;;;25.40;61.60;;;;;;5049950;28;20090;-64
2022/08/26 02:05:03;;;;;;;3.75;3.42;;;25.40;61.60;;;;;;5050487;28;20045;-64
2022/08/26 02:07:31;;;;;;;3.78;3.47;;;25.40;61.60;;;;;;5048894;28;20053;-64
2022/08/26 02:09:59;;;;;;;3.80;3.50;;;25.40;61.60;;;;;;5050460;28;20190;-63
2022/08/26 02:12:26;;;;;;;3.67;3.38;;;25.40;61.60;;;;;;5049912;28;20094;-64
2022/08/26 02:14:59;;;;;;;3.67;3.38;;;25.40;61.60;;;;;;5044664;28;20093;-63
2022/08/26 02:17:36;;;;;;;3.80;3.50;;;25.40;61.60;;;;;;5049565;28;20343;-63
2022/08/26 02:20:05;;;;;;;4.35;3.95;;;25.40;61.60;;;;;;5050034;28;20413;-63
2022/08/26 02:22:40;;;;;;;3.53;3.22;;;25.40;61.60;;;;;;5050063;28;20053;-64
2022/08/26 02:25:30;;;;;;;3.65;3.30;;;25.40;61.60;;;;;;5050553;28;20067;-63
2022/08/26 02:27:57;;;;;;;4.75;3.28;;;25.40;61.60;;;;;;5049836;28;20057;-64
2022/08/26 02:30:30;;;;;;;4.00;3.70;;;25.40;61.60;;;;;;5049835;28;20084;-64
2022/08/26 02:33:02;;;;;;;3.40;3.10;;;25.40;61.60;;;;;;5049267;28;20041;-63
2022/08/26 02:35:31;;;;;;;3.58;3.28;;;25.30;61.50;;;;;;5050806;28;20047;-63
2022/08/26 02:37:59;;;;;;;3.35;3.05;;;25.30;61.50;;;;;;5047641;28;20532;-63
2022/08/26 02:40:30;;;;;;;3.65;3.35;;;25.40;61.70;;;;;;5048114;28;20048;-64
2022/08/26 02:42:57;;;;;;;3.83;3.50;;;25.30;61.60;;;;;;5049797;28;20044;-64
2022/08/26 02:45:27;;;;;;;3.78;3.47;;;25.40;61.70;;;;;;5043556;28;20071;-63
2022/08/26 02:47:57;;;;;;;5.07;4.10;;;25.30;61.60;;;;;;5048356;28;20096;-63
2022/08/26 02:50:26;;;;;;;4.47;3.65;;;25.30;61.60;;;;;;5048295;28;20068;-64
2022/08/26 02:52:53;;;;;;;3.50;3.20;;;25.30;61.60;;;;;;5050239;28;20079;-64
2022/08/26 02:55:20;;;;;;;4.85;3.88;;;25.30;61.70;;;;;;5049258;28;20052;-63
2022/08/26 02:57:51;;;;;;;4.05;3.15;;;25.30;61.70;;;;;;5049229;28;20490;-64
2022/08/26 03:00:18;;;;;;;4.10;3.70;;;25.30;61.70;;;;;;5048869;28;20541;-63
2022/08/26 03:02:46;;;;;;;3.92;3.63;;;25.40;61.70;;;;;;5048847;28;20049;-63
2022/08/26 03:05:16;;;;;;;3.50;3.20;;;25.30;61.70;;;;;;5049339;28;20045;-63
2022/08/26 03:07:44;;;;;;;3.97;3.53;;;25.30;61.70;;;;;;5049220;28;20080;-64
2022/08/26 03:10:12;;;;;;;3.90;3.50;;;25.40;61.80;;;;;;5048876;28;20049;-63
2022/08/26 03:12:40;;;;;;;3.93;3.60;;;25.40;61.90;;;;;;5049022;28;20441;-64
2022/08/26 03:15:08;;;;;;;3.70;3.38;;;25.30;61.90;;;;;;5049277;28;20368;-63
2022/08/26 03:17:47;;;;;;;4.80;3.78;;;25.30;62.00;;;;;;5044799;28;20048;-64
2022/08/26 03:20:16;;;;;;;4.30;3.65;;;25.30;62.00;;;;;;5048388;28;20073;-63
2022/08/26 03:22:44;;;;;;;3.88;3.47;;;25.30;62.10;;;;;;5048771;28;20480;-64
2022/08/26 03:25:14;;;;;;;3.58;3.28;;;25.30;62.10;;;;;;5048771;28;20049;-61
2022/08/26 03:27:41;;;;;;;4.05;3.65;;;25.30;62.10;;;;;;5048787;28;20064;-62
2022/08/26 03:32:59;;;;;;;3.97;3.25;;;25.30;62.10;;;;;;5048536;28;20041;-61
2022/08/26 03:35:27;;;;;;;3.78;3.42;;;25.30;62.10;;;;;;5047071;28;20045;-61
2022/08/26 03:37:54;;;;;;;3.58;3.28;;;25.30;62.20;;;;;;5048865;28;20077;-61
2022/08/26 03:40:22;;;;;;;3.83;3.15;;;25.30;62.20;;;;;;5047806;28;20091;-61
2022/08/26 03:42:50;;;;;;;3.30;3.10;;;25.30;62.20;;;;;;5045750;28;20132;-62
2022/08/26 03:45:19;;;;;;;3.75;3.40;;;25.30;62.20;;;;;;5043958;28;20107;-61
2022/08/26 03:47:47;;;;;;;3.78;3.38;;;25.30;62.20;;;;;;5043248;28;20234;-62
2022/08/26 03:50:18;;;;;;;3.80;3.40;;;25.30;62.20;;;;;;5046204;28;20464;-62
2022/08/26 03:52:50;;;;;;;4.15;3.17;;;25.30;62.20;;;;;;5046230;28;20049;-62
2022/08/26 03:55:18;;;;;;;3.30;3.00;;;25.30;62.20;;;;;;5047496;28;20048;-61
2022/08/26 03:57:50;;;;;;;4.40;4.00;;;25.30;62.20;;;;;;5047597;28;20048;-62
2022/08/26 04:00:18;;;;;;;4.25;3.85;;;25.30;62.20;;;;;;5046593;28;20055;-61
2022/08/26 04:02:47;;;;;;;4.47;3.72;;;25.30;62.20;;;;;;5047368;28;20464;-64
2022/08/26 04:05:16;;;;;;;3.63;3.33;;;25.30;62.20;;;;;;5046898;28;20045;-62
2022/08/26 04:07:46;;;;;;;4.85;3.67;;;25.30;62.20;;;;;;5048191;28;20135;-61
2022/08/26 04:10:17;;;;;;;4.00;3.53;;;25.30;62.20;;;;;;5048602;28;20150;-61
2022/08/26 04:12:46;;;;;;;4.35;3.80;;;25.30;62.20;;;;;;5053338;28;20044;-61
2022/08/26 04:15:15;;;;;;;4.10;3.63;;;25.20;62.10;;;;;;5067203;28;20102;-62
2022/08/26 04:17:44;;;;;;;5.03;3.90;;;25.30;62.10;;;;;;5066781;28;20048;-62
2022/08/26 04:20:14;;;;;;;4.00;3.55;;;25.30;62.10;;;;;;5063530;28;20084;-63
2022/08/26 04:22:42;;;;;;;4.63;3.60;;;25.30;62.00;;;;;;5067130;28;20048;-63
2022/08/26 04:25:11;;;;;;;4.07;3.78;;;25.30;62.00;;;;;;5060376;28;20072;-63
2022/08/26 04:27:38;;;;;;;5.25;3.50;;;25.30;61.90;;;;;;5047044;28;20122;-62
2022/08/26 04:30:07;;;;;;;4.60;3.50;;;25.30;61.80;;;;;;5047624;28;20041;-62
2022/08/26 04:32:36;;;;;;;4.88;4.10;;;25.30;61.80;;;;;;5048103;28;20045;-62
2022/08/26 04:35:04;;;;;;;5.30;4.00;;;25.30;61.80;;;;;;5047577;28;20053;-62
2022/08/26 04:37:32;;;;;;;4.38;3.65;;;25.30;61.80;;;;;;5047909;28;20054;-62
2022/08/26 04:39:59;;;;;;;8.07;4.57;;;25.30;61.60;;;;;;5047686;28;20391;-62
2022/08/26 04:42:28;;;;;;;9.35;4.07;;;25.40;61.50;;;;;;5047603;28;20464;-62
2022/08/26 04:44:55;;;;;;;6.20;4.60;;;25.40;61.20;;;;;;5046723;28;20189;-62
2022/08/26 04:47:23;;;;;;;7.20;4.10;;;25.40;61.00;;;;;;5046920;28;20102;-62
2022/08/26 04:49:57;;;;;;;5.22;3.72;;;25.40;60.80;;;;;;5047358;28;20095;-62
2022/08/26 04:52:25;;;;;;;5.85;4.00;;;25.40;60.70;;;;;;5043876;28;20442;-62
2022/08/26 04:54:54;;;;;;;9.73;4.57;;;25.40;60.60;;;;;;5047894;28;20040;-64
2022/08/26 04:57:22;;;;;;;8.52;4.47;;;25.40;60.40;;;;;;5051957;28;20045;-62
2022/08/26 04:59:49;;;;;;;4.97;4.30;;;25.40;60.40;;;;;;5051658;28;20099;-62
2022/08/26 05:02:16;;;;;;;15.70;4.70;;;25.40;60.20;;;;;;5051635;28;20044;-62
2022/08/26 05:04:44;;;;;;;9.73;4.78;;;25.40;60.20;;;;;;5052243;28;20045;-62
2022/08/26 05:07:11;;;;;;;6.97;4.28;;;25.40;60.10;;;;;;5047534;28;20503;-63
2022/08/26 05:09:39;;;;;;;8.50;3.92;;;25.40;60.10;;;;;;5041630;28;20087;-62
2022/08/26 05:12:08;;;;;;;5.05;4.53;;;25.40;60.30;;;;;;5049970;28;20098;-62
2022/08/26 05:14:35;;;;;;;6.65;4.82;;;25.30;60.40;;;;;;5063762;28;20446;-62
2022/08/26 05:17:03;;;;;;;5.47;4.63;;;25.20;60.60;;;;;;5070672;28;20106;-60
2022/08/26 05:19:30;;;;;;;7.95;4.85;;;25.10;59.90;;;;;;5060691;28;20095;-60
2022/08/26 05:21:58;;;;;;;5.28;4.28;;;24.90;59.00;;;;;;5051594;28;20405;-60
2022/08/26 05:24:26;;;;;;;6.97;4.50;;;24.70;58.10;;;;;;5038633;28;20448;-60
2022/08/26 05:26:54;;;;;;;6.97;4.43;;;24.40;57.40;;;;;;5046305;28;20048;-60
2022/08/26 05:29:23;;;;;;;8.65;4.45;;;24.10;56.90;;;;;;5047469;28;20064;-60
2022/08/26 05:31:51;;;;;;;7.35;4.35;;;23.90;56.10;;;;;;5043554;28;20053;-60
2022/08/26 05:34:21;;;;;;;5.85;4.72;;;23.60;55.70;;;;;;5043267;28;20048;-60
2022/08/26 05:36:51;;;;;;;6.90;5.07;;;23.20;55.50;;;;;;5036691;28;20068;-59
2022/08/26 05:39:22;;;;;;;5.95;4.88;;;22.90;55.30;;;;;;5040067;28;20045;-60
2022/08/26 05:41:49;;;;;;;8.55;5.18;;;22.60;55.00;;;;;;5051881;28;20045;-60
2022/08/26 05:44:19;;;;;;;9.60;5.25;;;22.40;54.80;;;;;;5048263;28;20072;-60
2022/08/26 05:46:48;;;;;;;13.68;5.72;;;22.10;55.10;;;;;;5033993;28;20053;-59
2022/08/26 05:49:17;;;;;;;5.95;5.32;;;21.80;55.30;;;;;;5035160;28;20049;-60
2022/08/26 05:51:45;;;;;;;13.73;6.53;;;21.50;57.20;;;;;;5037332;28;20139;-61
2022/08/26 05:54:14;;;;;;;8.05;5.65;;;21.30;57.50;;;;;;5035474;28;20777;-60
2022/08/26 05:56:48;;;;;;;11.00;5.80;;;21.10;57.80;;;;;;5043374;28;20444;-60
2022/08/26 05:59:16;;;;;;;7.10;5.30;;;20.90;57.50;;;;;;5046727;28;20059;-60
2022/08/26 06:01:50;;;;;;;8.48;5.72;;;20.70;57.90;;;;;;5040093;28;20441;-59
2022/08/26 06:04:18;;;;;;;10.57;6.13;;;20.50;58.20;;;;;;5047172;28;20044;-59
2022/08/26 06:06:48;;;;;;;12.93;6.53;;;20.40;58.90;;;;;;5043108;28;20044;-61
2022/08/26 06:09:16;;;;;;;14.53;6.20;;;20.30;58.10;;;;;;5071834;28;20053;-61
2022/08/26 06:11:44;;;;;;;12.57;6.78;;;20.20;59.00;;;;;;5041459;28;20179;-62
2022/08/26 06:14:11;;;;;;;11.40;6.45;;;20.00;60.70;;;;;;5047906;28;20477;-63
2022/08/26 06:16:43;;;;;;;9.50;6.60;;;19.90;59.60;;;;;;5047222;28;20048;-62
2022/08/26 06:19:14;;;;;;;8.77;6.45;;;19.80;60.50;;;;;;5048318;28;20053;-63
2022/08/26 06:21:45;;;;;;;7.32;5.60;;;19.70;61.60;;;;;;5050978;28;20067;-63
2022/08/26 06:27:08;;;;;;;10.25;6.32;;;19.60;61.90;;;;;;5032893;28;20050;-63
2022/08/26 06:29:37;;;;;;;7.70;6.30;;;19.60;61.60;;;;;;5035475;28;20133;-63
2022/08/26 06:32:05;;;;;;;8.90;6.30;;;19.50;61.50;;;;;;5038293;28;20103;-63
2022/08/26 06:34:35;;;;;;;10.93;5.68;;;19.50;60.90;;;;;;5038229;28;20041;-63
2022/08/26 06:37:04;;;;;;;9.45;6.40;;;19.30;61.90;;;;;;5038284;28;20102;-63
2022/08/26 06:39:32;;;;;;;13.38;6.72;;;19.30;62.10;;;;;;5041403;28;20053;-63
2022/08/26 06:42:01;;;;;;;7.18;5.80;;;19.20;63.80;;;;;;5035174;28;20056;-63
2022/08/26 06:44:29;;;;;;;8.02;6.43;;;19.20;63.60;;;;;;5035566;28;20045;-63
2022/08/26 06:46:58;;;;;;;9.63;6.43;;;19.20;63.40;;;;;;5042487;28;20045;-63
2022/08/26 06:49:25;;;;;;;8.60;6.10;;;19.30;63.60;;;;;;5041458;28;20080;-63
2022/08/26 06:51:57;;;;;;;9.82;7.07;;;19.30;63.60;;;;;;5047462;28;20053;-63
2022/08/26 06:54:26;;;;;;;7.68;5.80;;;19.30;64.20;;;;;;5048914;28;20053;-63
2022/08/26 06:56:55;;;;;;;7.47;5.68;;;19.40;63.90;;;;;;5035194;28;20053;-63
2022/08/26 06:59:23;;;;;;;9.15;6.72;;;19.40;64.20;;;;;;5047379;28;20075;-63
2022/08/26 07:01:51;;;;;;;9.60;6.28;;;19.40;63.80;;;;;;5034147;28;21257;-62
2022/08/26 07:04:19;;;;;;;10.88;7.15;;;19.40;63.50;;;;;;5039945;28;20049;-62
2022/08/26 07:06:51;;;;;;;10.57;7.32;;;19.60;71.60;;;;;;5041633;28;20045;-62
2022/08/26 07:09:22;;;;;;;8.85;6.95;;;19.80;71.60;;;;;;5048768;28;20071;-63
2022/08/26 07:11:50;;;;;;;11.67;7.00;;;20.00;71.20;;;;;;5044771;28;20049;-63
2022/08/26 07:14:18;;;;;;;13.40;7.20;;;20.20;71.10;;;;;;5042114;28;20090;-63
2022/08/26 07:16:48;;;;;;;9.98;7.28;;;20.30;69.80;;;;;;5040829;28;20064;-63
2022/08/26 07:19:17;;;;;;;10.75;7.15;;;20.50;70.10;;;;;;5036998;28;20401;-63
2022/08/26 07:22:00;;;;;;;8.63;6.50;;;20.60;69.70;;;;;;5066595;28;20052;-64
2022/08/26 07:24:29;;;;;;;9.35;6.72;;;20.70;69.10;;;;;;5038303;28;20053;-66
2022/08/26 07:27:01;;;;;;;12.13;6.60;;;20.80;69.10;;;;;;5042985;28;20468;-62
2022/08/26 07:29:29;;;;;;;9.88;6.40;;;20.80;62.90;;;;;;5044313;28;20097;-63
2022/08/26 07:31:58;;;;;;;7.82;6.30;;;20.70;62.30;;;;;;5038274;28;20056;-62
2022/08/26 07:34:26;;;;;;;10.52;6.35;;;20.60;62.80;;;;;;5045032;28;20052;-65
2022/08/26 07:36:55;;;;;;;7.38;6.60;;;20.50;62.80;;;;;;5038626;28;20057;-63
2022/08/26 07:39:26;;;;;;;11.00;6.80;;;20.40;63.40;;;;;;5046388;28;20414;-63
2022/08/26 07:41:53;;;;;;;11.23;6.97;;;20.30;63.50;;;;;;5039975;28;21181;-62
2022/08/26 07:44:20;;;;;;;11.68;6.60;;;20.30;63.80;;;;;;5040606;28;20049;-62
2022/08/26 07:46:48;;;;;;;10.63;6.45;;;20.20;64.20;;;;;;5039508;28;20048;-63
2022/08/26 07:49:20;;;;;;;10.13;6.40;;;20.20;64.70;;;;;;5033752;28;20579;-62
2022/08/26 07:51:49;;;;;;;15.68;6.43;;;20.20;64.50;;;;;;5041022;28;20125;-64
2022/08/26 07:54:17;;;;;;;6.78;5.90;;;20.20;65.00;;;;;;5033241;28;20044;-63
2022/08/26 07:56:46;;;;;;;8.43;5.97;;;20.20;65.30;;;;;;5036620;28;20560;-62
2022/08/26 07:59:16;;;;;;;10.75;6.30;;;20.20;65.20;;;;;;5032375;28;20053;-63
2022/08/26 08:01:45;;;;;;;7.95;6.10;;;20.20;65.30;;;;;;5029390;28;20501;-63
2022/08/26 08:04:13;;;;;;;9.35;6.90;;;20.20;65.60;;;;;;5029981;28;20071;-63
2022/08/26 08:06:41;;;;;;;8.68;5.82;;;20.20;65.20;;;;;;5031479;28;20080;-63
2022/08/26 08:09:11;;;;;;;8.60;5.90;;;20.20;64.50;;;;;;5030077;28;20505;-62
2022/08/26 08:11:39;;;;;;;8.27;6.38;;;20.30;65.00;;;;;;5029327;28;20383;-64
2022/08/26 08:14:07;;;;;;;10.27;6.72;;;20.30;64.90;;;;;;5036766;28;20060;-62
2022/08/26 08:16:37;;;;;;;16.17;6.82;;;20.30;65.20;;;;;;5038528;28;20399;-62
2022/08/26 08:19:12;;;;;;;9.00;5.97;;;20.30;64.90;;;;;;5034141;28;20095;-62
2022/08/26 08:21:40;;;;;;;12.98;6.63;;;20.40;64.60;;;;;;5040539;28;20041;-62
2022/08/26 08:24:09;;;;;;;9.05;5.78;;;20.40;64.60;;;;;;5038567;28;20067;-63
2022/08/26 08:26:37;;;;;;;10.82;5.65;;;20.40;64.20;;;;;;5042129;28;20045;-63
2022/08/26 08:29:06;;;;;;;11.55;6.03;;;20.40;64.60;;;;;;5038778;28;20050;-63
2022/08/26 08:31:34;;;;;;;11.48;5.97;;;20.40;64.80;;;;;;5046449;28;20075;-63
2022/08/26 08:34:22;;;;;;;9.57;6.45;;;20.40;64.80;;;;;;5042434;28;20041;-64
2022/08/26 08:36:51;;;;;;;11.57;6.15;;;20.40;65.00;;;;;;5047398;28;20463;-63
2022/08/26 08:39:21;;;;;;;10.73;5.90;;;20.40;64.90;;;;;;5046316;28;20401;-62
2022/08/26 08:42:28;;;;;;;7.28;5.45;;;20.40;64.70;;;;;;5040629;28;20063;-62
2022/08/26 08:44:57;;;;;;;9.88;5.53;;;20.40;64.80;;;;;;5043282;28;20056;-63
2022/08/26 08:47:37;;;;;;;9.02;5.45;;;20.50;65.00;;;;;;5045000;28;20601;-62
2022/08/26 08:50:20;;;;;;;9.13;5.68;;;20.50;65.10;;;;;;5036164;28;20102;-62
2022/08/26 08:53:27;;;;;;;11.40;5.90;;;20.50;65.40;;;;;;5036023;28;20053;-63
2022/08/26 08:56:22;;;;;;;11.05;5.15;;;20.50;64.90;;;;;;5044517;28;20096;-62
2022/08/26 08:59:13;;;;;;;13.05;5.70;;;20.60;64.70;;;;;;5044501;28;20136;-62
2022/08/26 09:02:03;;;;;;;9.00;4.70;;;20.50;65.10;;;;;;5035450;28;20073;-63
2022/08/26 09:05:12;;;;;;;9.27;5.30;;;20.50;65.10;;;;;;5036128;28;20056;-62
2022/08/26 09:08:03;;;;;;;8.18;5.30;;;20.50;64.80;;;;;;5037919;28;20413;-62
2022/08/26 09:10:43;;;;;;;11.82;4.85;;;20.60;65.20;;;;;;5041463;28;20077;-62
2022/08/26 09:13:14;;;;;;;12.75;5.93;;;20.60;65.00;;;;;;5038559;28;20137;-63
2022/08/26 09:16:14;;;;;;;8.32;5.13;;;20.50;65.30;;;;;;5039090;28;20073;-61
2022/08/26 09:19:07;;;;;;;13.10;5.53;;;20.50;65.00;;;;;;5042469;28;20057;-62
2022/08/26 09:21:34;;;;;;;12.32;5.35;;;20.60;66.20;;;;;;5042727;28;20079;-62
2022/08/26 09:24:02;;;;;;;14.15;5.60;;;20.60;65.40;;;;;;5046319;28;20045;-63
2022/08/26 09:26:45;;;;;;;10.05;4.80;;;20.60;65.40;;;;;;5046001;28;20104;-63
2022/08/26 09:29:21;;;;;;;11.45;5.43;;;20.70;65.00;;;;;;5056315;28;20049;-63
2022/08/26 09:31:48;;;;;;;14.02;5.03;;;20.70;65.10;;;;;;5044232;28;20041;-63
2022/08/26 09:34:23;;;;;;;12.45;5.15;;;20.70;65.10;;;;;;5046085;28;20041;-64
2022/08/26 09:36:56;;;;;;;12.43;5.35;;;20.70;65.70;;;;;;5042960;28;20087;-63
2022/08/26 09:39:27;;;;;;;16.08;5.40;;;20.80;65.20;;;;;;5045190;28;20052;-62
2022/08/26 09:42:19;;;;;;;12.88;5.30;;;20.80;65.60;;;;;;5043584;28;20046;-62
2022/08/26 09:45:05;;;;;;;11.85;5.45;;;20.90;65.00;;;;;;5041352;28;20068;-61
2022/08/26 09:47:53;;;;;;;9.35;4.90;;;20.90;64.80;;;;;;5040435;28;20041;-61
2022/08/26 09:50:37;;;;;;;13.00;4.85;;;20.90;64.80;;;;;;5047278;28;20057;-63
2022/08/26 09:53:29;;;;;;;14.82;5.32;;;20.90;64.20;;;;;;5070239;28;20068;-61
2022/08/26 09:56:25;;;;;;;11.30;5.18;;;21.00;63.90;;;;;;5047815;28;20045;-62
2022/08/26 09:58:55;;;;;;;8.52;5.45;;;21.00;63.60;;;;;;5048733;28;20053;-62
2022/08/26 10:01:34;;;;;;;7.60;4.38;;;21.00;63.70;;;;;;5048894;28;20040;-60
2022/08/26 10:04:19;;;;;;;12.82;4.60;;;20.90;62.80;;;;;;5031188;28;20087;-61
2022/08/26 10:06:59;;;;;;;7.93;4.20;;;20.90;63.20;;;;;;5029287;28;20045;-63
2022/08/26 10:09:32;;;;;;;10.20;4.35;;;20.90;63.00;;;;;;5031657;28;20511;-63
2022/08/26 10:12:05;;;;;;;12.75;5.68;;;20.80;63.00;;;;;;5036911;28;20099;-63
2022/08/26 10:14:40;;;;;;;11.63;4.38;;;20.80;62.70;;;;;;5030138;28;20049;-62
2022/08/26 10:17:27;;;;;;;9.80;5.45;;;20.80;62.40;;;;;;5030294;28;20485;-63
2022/08/26 10:20:05;;;;;;;13.73;4.65;;;20.80;62.50;;;;;;5034128;28;20045;-62
2022/08/26 10:23:07;;;;;;;9.15;4.95;;;20.70;62.60;;;;;;5036048;28;20069;-62
2022/08/26 10:25:59;;;;;;;9.65;4.57;;;20.70;62.20;;;;;;5036331;28;20386;-63
2022/08/26 10:28:47;;;;;;;15.93;4.85;;;20.70;62.50;;;;;;5039738;28;20053;-63
2022/08/26 10:31:33;;;;;;;8.35;4.60;;;20.70;62.10;;;;;;5026808;28;20049;-62
2022/08/26 10:34:07;;;;;;;12.45;4.22;;;20.70;61.60;;;;;;5041373;28;20087;-63
2022/08/26 10:36:49;;;;;;;10.32;4.40;;;20.60;62.10;;;;;;5038716;28;20045;-63
2022/08/26 10:40:01;;;;;;;8.68;4.25;;;20.60;62.00;;;;;;5032662;28;20132;-63
2022/08/26 10:42:35;;;;;;;11.77;4.90;;;20.60;61.60;;;;;;5031906;28;20049;-61
2022/08/26 10:45:19;;;;;;;14.90;4.57;;;20.60;61.50;;;;;;5047909;28;20136;-62
2022/08/26 10:48:02;;;;;;;13.23;4.88;;;20.60;61.10;;;;;;5037646;28;20093;-62
2022/08/26 10:50:34;;;;;;;11.75;4.60;;;20.60;61.30;;;;;;5039134;28;20056;-62
2022/08/26 10:53:29;;;;;;;9.63;4.07;;;20.50;61.20;;;;;;5041004;28;20103;-62
2022/08/26 10:56:27;;;;;;;6.50;3.78;;;20.50;61.90;;;;;;5037097;28;20044;-62
2022/08/26 10:59:22;;;;;;;10.88;4.78;;;20.50;61.20;;;;;;5042550;28;20068;-62
2022/08/26 11:02:25;;;;;;;10.38;4.30;;;20.40;61.10;;;;;;5044571;28;20056;-63
2022/08/26 11:05:02;;;;;;;11.07;4.50;;;20.40;61.40;;;;;;5034610;28;20053;-63
2022/08/26 11:07:43;;;;;;;9.07;4.13;;;20.40;61.90;;;;;;5042818;28;20102;-63
2022/08/26 11:10:50;;;;;;;10.90;4.10;;;20.40;62.30;;;;;;5042591;28;20084;-64
2022/08/26 11:13:18;;;;;;;21.33;4.45;;;20.50;61.80;;;;;;5032629;28;20429;-62
2022/08/26 11:15:57;;;;;;;14.48;5.00;;;20.50;61.80;;;;;;5038907;28;20726;-63
2022/08/26 11:18:40;;;;;;;10.60;4.13;;;20.50;61.40;;;;;;5025102;28;20099;-64
2022/08/26 11:21:43;;;;;;;12.82;5.05;;;20.50;61.60;;;;;;5038677;28;20136;-62
2022/08/26 11:24:40;;;;;;;17.75;4.85;;;20.50;61.30;;;;;;5039760;28;20134;-64
2022/08/26 11:27:28;;;;;;;9.80;4.25;;;20.50;61.20;;;;;;5046615;28;20060;-66
2022/08/26 11:30:01;;;;;;;13.57;4.07;;;20.50;61.40;;;;;;5037068;28;20040;-63
2022/08/26 11:32:50;;;;;;;12.98;3.83;;;20.50;61.50;;;;;;5034371;28;20091;-64
2022/08/26 11:35:45;;;;;;;6.43;3.60;;;20.60;61.10;;;;;;5034503;28;20052;-65
2022/08/26 11:38:29;;;;;;;16.45;4.97;;;20.60;61.10;;;;;;5030153;28;20049;-65
2022/08/26 11:41:07;;;;;;;16.48;4.47;;;20.60;60.80;;;;;;5036203;28;20119;-64
2022/08/26 11:43:36;;;;;;;15.95;4.30;;;20.60;60.50;;;;;;5034561;28;20049;-65
2022/08/26 11:46:09;;;;;;;12.23;3.93;;;20.60;60.50;;;;;;5045714;28;20041;-64
2022/08/26 11:48:42;;;;;;;11.43;4.20;;;20.60;60.90;;;;;;5031961;28;20139;-63
2022/08/26 11:51:21;;;;;;;14.45;4.20;;;20.60;60.50;;;;;;5039898;28;20308;-63
2022/08/26 11:53:49;;;;;;;13.93;3.90;;;20.50;60.60;;;;;;5038100;28;20665;-62
2022/08/26 11:56:26;;;;;;;10.65;4.38;;;20.50;60.70;;;;;;5038610;28;20518;-64
2022/08/26 11:58:58;;;;;;;;;;;20.50;61.20;;;;;;5036506;28;20285;-63
2022/08/26 12:01:34;;;;;;;15.73;5.03;;;20.50;61.20;;;;;;5028195;28;19928;-62
2022/08/26 12:04:09;;;;;;;15.52;4.85;;;20.40;61.40;;;;;;5033048;28;20434;-61
2022/08/26 12:06:44;;;;;;;7.22;4.07;;;20.50;61.50;;;;;;5040616;28;20502;-62
2022/08/26 12:09:27;;;;;;;9.07;4.28;;;20.50;61.80;;;;;;5037374;28;20049;-62
2022/08/26 12:12:15;;;;;;;11.88;3.53;;;20.50;61.20;;;;;;5031752;28;20040;-62
2022/08/26 12:14:43;;;;;;;12.05;4.25;;;20.50;60.80;;;;;;5038063;28;20049;-63
2022/08/26 12:17:14;;;;;;;14.15;4.50;;;20.50;61.30;;;;;;5040220;28;20053;-63
2022/08/26 12:19:42;;;;;;;10.80;4.88;;;20.50;60.90;;;;;;5040867;28;20107;-62
2022/08/26 12:22:31;;;;;;;10.45;4.10;;;20.50;60.70;;;;;;5032042;28;20514;-63
2022/08/26 12:25:01;;;;;;;9.05;3.95;;;20.60;60.30;;;;;;5037456;28;20045;-62
2022/08/26 12:27:30;;;;;;;;;;;20.60;60.60;;;;;;5043060;28;20037;-62
2022/08/26 12:30:12;;;;;;;14.30;4.07;;;20.50;60.10;;;;;;5040395;28;19928;-62
2022/08/26 12:32:47;;;;;;;10.07;3.67;;;20.60;60.50;;;;;;5041472;28;20049;-62
2022/08/26 12:35:27;;;;;;;6.97;3.60;;;20.60;60.80;;;;;;5044683;28;20144;-62
2022/08/26 12:37:56;;;;;;;;;;;20.60;60.80;;;;;;5041691;28;20375;-62
2022/08/26 12:40:45;;;;;;;6.05;3.30;;;20.60;60.50;;;;;;5043552;28;19920;-62
2022/08/26 12:43:34;;;;;;;8.68;4.00;;;20.50;60.70;;;;;;5033378;28;20053;-62
2022/08/26 12:46:03;;;;;;;11.13;3.53;;;20.60;61.10;;;;;;5063149;28;20045;-62
2022/08/26 12:48:35;;;;;;;13.32;3.97;;;20.70;60.90;;;;;;5041260;28;20136;-62
2022/08/26 12:51:04;;;;;;;5.55;3.17;;;20.70;60.50;;;;;;5029812;28;20048;-62
2022/08/26 12:53:34;;;;;;;13.68;3.83;;;20.70;60.20;;;;;;5039840;28;20049;-62
2022/08/26 12:56:17;;;;;;;13.15;4.10;;;20.70;60.60;;;;;;5038755;28;20045;-62
2022/08/26 12:58:58;;;;;;;10.70;3.55;;;20.70;60.70;;;;;;5041110;28;20049;-62
2022/08/26 13:01:25;;;;;;;11.70;3.20;;;20.70;60.50;;;;;;5034833;28;20225;-62
2022/08/26 13:03:53;;;;;;;7.43;3.58;;;20.80;59.90;;;;;;5036858;28;20059;-63
2022/08/26 13:06:30;;;;;;;12.77;3.95;;;20.70;60.40;;;;;;5030887;28;20045;-63
2022/08/26 13:09:28;;;;;;;9.93;3.92;;;20.80;60.80;;;;;;5027291;28;20357;-63
2022/08/26 13:11:57;;;;;;;11.35;3.58;;;20.80;60.70;;;;;;5027752;28;20049;-62
2022/08/26 13:14:24;;;;;;;9.63;3.97;;;20.80;61.40;;;;;;5041156;28;20178;-60
2022/08/26 13:16:52;;;;;;;10.15;3.72;;;20.80;61.00;;;;;;5047727;28;20049;-62
2022/08/26 13:19:24;;;;;;;9.48;3.35;;;20.80;61.50;;;;;;5046282;28;20460;-62
2022/08/26 13:21:54;;;;;;;5.57;4.07;;;20.80;61.20;;;;;;5049847;28;20098;-62
2022/08/26 13:24:41;;;;;;;10.27;3.00;;;20.80;60.80;;;;;;5051562;28;20053;-62